sensor_id;sensor_type;location;lat;lon;timestamp;temperature;humidity
19493;DHT22;9887;54.366;10.958;2022-09-09T00:00:12;14.70;99.90
19493;DHT22;9887;54.366;10.958;2022-09-09T00:02:45;14.70;99.90
19493;DHT22;9887;54.366;10.958;2022-09-09T00:05:21;14.70;99.90
19493;DHT22;9887;54.366;10.958;2022-09-09T00:07:55;14.70;99.90
19493;DHT22;9887;54.366;10.958;2022-09-09T00:10:29;14.70;99.90
19493;DHT22;9887;54.366;10.958;2022-09-09T00:13:03;14.90;99.90
19493;DHT22;9887;54.366;10.958;2022-09-09T00:15:40;14.70;99.90
19493;DHT22;9887;54.366;10.958;2022-09-09T00:18:16;14.70;99.90
19493;DHT22;9887;54.366;10.958;2022-09-09T00:20:47;14.80;99.90
19493;DHT22;9887;54.366;10.958;2022-09-09T00:23:24;14.80;99.90
19493;DHT22;9887;54.366;10.958;2022-09-09T00:25:59;14.90;99.90
19493;DHT22;9887;54.366;10.958;2022-09-09T00:28:28;14.90;99.90
19493;DHT22;9887;54.366;10.958;2022-09-09T00:31:04;15.10;99.90
19493;DHT22;9887;54.366;10.958;2022-09-09T00:33:36;14.90;99.90
19493;DHT22;9887;54.366;10.958;2022-09-09T00:36:12;14.90;99.90
19493;DHT22;9887;54.366;10.958;2022-09-09T00:38:45;15.00;99.90
19493;DHT22;9887;54.366;10.958;2022-09-09T00:41:20;15.00;99.90
19493;DHT22;9887;54.366;10.958;2022-09-09T00:43:56;15.00;99.90
19493;DHT22;9887;54.366;10.958;2022-09-09T00:46:46;15.10;99.90
19493;DHT22;9887;54.366;10.958;2022-09-09T00:49:25;15.30;99.90
19493;DHT22;9887;54.366;10.958;2022-09-09T00:52:07;15.10;99.90
19493;DHT22;9887;54.366;10.958;2022-09-09T00:54:47;15.10;99.90
19493;DHT22;9887;54.366;10.958;2022-09-09T00:57:25;15.20;99.90
19493;DHT22;9887;54.366;10.958;2022-09-09T01:00:02;15.00;99.90
19493;DHT22;9887;54.366;10.958;2022-09-09T01:02:41;15.10;99.90
19493;DHT22;9887;54.366;10.958;2022-09-09T01:05:15;15.10;99.90
19493;DHT22;9887;54.366;10.958;2022-09-09T01:07:48;15.10;99.90
19493;DHT22;9887;54.366;10.958;2022-09-09T01:10:30;15.00;99.90
19493;DHT22;9887;54.366;10.958;2022-09-09T01:13:01;15.00;99.90
19493;DHT22;9887;54.366;10.958;2022-09-09T01:15:32;15.00;99.90
19493;DHT22;9887;54.366;10.958;2022-09-09T01:18:06;14.90;99.90
19493;DHT22;9887;54.366;10.958;2022-09-09T01:20:45;14.90;99.90
19493;DHT22;9887;54.366;10.958;2022-09-09T01:23:40;15.20;99.90
19493;DHT22;9887;54.366;10.958;2022-09-09T01:26:22;14.90;99.90
19493;DHT22;9887;54.366;10.958;2022-09-09T01:28:54;15.00;99.90
19493;DHT22;9887;54.366;10.958;2022-09-09T01:31:32;15.10;99.90
19493;DHT22;9887;54.366;10.958;2022-09-09T01:34:04;15.00;99.90
19493;DHT22;9887;54.366;10.958;2022-09-09T01:36:42;14.90;99.90
19493;DHT22;9887;54.366;10.958;2022-09-09T01:39:12;15.00;99.90
19493;DHT22;9887;54.366;10.958;2022-09-09T01:41:42;15.00;99.90
19493;DHT22;9887;54.366;10.958;2022-09-09T01:44:13;15.00;99.90
19493;DHT22;9887;54.366;10.958;2022-09-09T01:46:44;14.90;99.90
19493;DHT22;9887;54.366;10.958;2022-09-09T01:49:16;14.90;99.90
19493;DHT22;9887;54.366;10.958;2022-09-09T01:51:48;15.00;99.90
19493;DHT22;9887;54.366;10.958;2022-09-09T01:54:18;15.00;99.90
19493;DHT22;9887;54.366;10.958;2022-09-09T01:57:01;15.00;99.90
19493;DHT22;9887;54.366;10.958;2022-09-09T02:00:01;15.20;99.90
19493;DHT22;9887;54.366;10.958;2022-09-09T02:02:44;15.10;99.90
19493;DHT22;9887;54.366;10.958;2022-09-09T02:05:28;15.20;99.90
19493;DHT22;9887;54.366;10.958;2022-09-09T02:08:05;15.10;99.90
19493;DHT22;9887;54.366;10.958;2022-09-09T02:10:46;15.00;99.90
19493;DHT22;9887;54.366;10.958;2022-09-09T02:13:32;14.90;99.90
19493;DHT22;9887;54.366;10.958;2022-09-09T02:16:07;15.10;99.90
19493;DHT22;9887;54.366;10.958;2022-09-09T02:18:40;15.20;99.90
19493;DHT22;9887;54.366;10.958;2022-09-09T02:21:11;15.10;99.90
19493;DHT22;9887;54.366;10.958;2022-09-09T02:23:42;15.10;99.90
19493;DHT22;9887;54.366;10.958;2022-09-09T02:26:13;15.10;99.90
19493;DHT22;9887;54.366;10.958;2022-09-09T02:28:51;15.10;99.90
19493;DHT22;9887;54.366;10.958;2022-09-09T02:31:22;15.00;99.90
19493;DHT22;9887;54.366;10.958;2022-09-09T02:34:01;15.00;99.90
19493;DHT22;9887;54.366;10.958;2022-09-09T02:36:32;15.10;99.90
19493;DHT22;9887;54.366;10.958;2022-09-09T02:39:02;15.00;99.90
19493;DHT22;9887;54.366;10.958;2022-09-09T02:41:36;15.10;99.90
19493;DHT22;9887;54.366;10.958;2022-09-09T02:44:10;15.10;99.90
19493;DHT22;9887;54.366;10.958;2022-09-09T02:46:56;15.10;99.90
19493;DHT22;9887;54.366;10.958;2022-09-09T02:49:37;15.10;99.90
19493;DHT22;9887;54.366;10.958;2022-09-09T02:52:13;15.20;99.90
19493;DHT22;9887;54.366;10.958;2022-09-09T02:54:42;15.20;99.90
19493;DHT22;9887;54.366;10.958;2022-09-09T02:57:15;15.20;99.90
19493;DHT22;9887;54.366;10.958;2022-09-09T02:59:49;15.10;99.90
19493;DHT22;9887;54.366;10.958;2022-09-09T03:02:18;15.20;99.90
19493;DHT22;9887;54.366;10.958;2022-09-09T03:04:52;15.10;99.90
19493;DHT22;9887;54.366;10.958;2022-09-09T03:07:20;15.10;99.90
19493;DHT22;9887;54.366;10.958;2022-09-09T03:09:50;15.10;99.90
19493;DHT22;9887;54.366;10.958;2022-09-09T03:12:22;15.20;99.90
19493;DHT22;9887;54.366;10.958;2022-09-09T03:14:51;15.10;99.90
19493;DHT22;9887;54.366;10.958;2022-09-09T03:17:19;15.10;99.90
19493;DHT22;9887;54.366;10.958;2022-09-09T03:19:52;15.40;99.90
19493;DHT22;9887;54.366;10.958;2022-09-09T03:22:21;15.10;99.90
19493;DHT22;9887;54.366;10.958;2022-09-09T03:24:49;15.10;99.90
19493;DHT22;9887;54.366;10.958;2022-09-09T03:27:18;15.10;99.90
19493;DHT22;9887;54.366;10.958;2022-09-09T03:29:47;15.00;99.90
19493;DHT22;9887;54.366;10.958;2022-09-09T03:32:22;15.20;99.90
19493;DHT22;9887;54.366;10.958;2022-09-09T03:34:53;15.20;99.90
19493;DHT22;9887;54.366;10.958;2022-09-09T03:37:21;15.10;99.90
19493;DHT22;9887;54.366;10.958;2022-09-09T03:39:50;15.20;99.90
19493;DHT22;9887;54.366;10.958;2022-09-09T03:42:18;14.90;99.90
19493;DHT22;9887;54.366;10.958;2022-09-09T03:44:50;15.10;99.90
19493;DHT22;9887;54.366;10.958;2022-09-09T03:47:22;15.20;99.90
19493;DHT22;9887;54.366;10.958;2022-09-09T03:49:55;15.20;99.90
19493;DHT22;9887;54.366;10.958;2022-09-09T03:52:23;15.10;99.90
19493;DHT22;9887;54.366;10.958;2022-09-09T03:54:53;15.20;99.90
19493;DHT22;9887;54.366;10.958;2022-09-09T03:57:23;15.20;99.90
19493;DHT22;9887;54.366;10.958;2022-09-09T03:59:51;15.20;99.90
19493;DHT22;9887;54.366;10.958;2022-09-09T04:02:18;15.30;99.90
19493;DHT22;9887;54.366;10.958;2022-09-09T04:04:49;15.20;99.90
19493;DHT22;9887;54.366;10.958;2022-09-09T04:07:17;15.10;99.90
19493;DHT22;9887;54.366;10.958;2022-09-09T04:09:45;15.10;99.90
19493;DHT22;9887;54.366;10.958;2022-09-09T04:12:14;15.10;99.90
19493;DHT22;9887;54.366;10.958;2022-09-09T04:14:43;14.90;99.90
19493;DHT22;9887;54.366;10.958;2022-09-09T04:17:11;15.10;99.90
19493;DHT22;9887;54.366;10.958;2022-09-09T04:19:39;15.10;99.90
19493;DHT22;9887;54.366;10.958;2022-09-09T04:22:08;15.20;99.90
19493;DHT22;9887;54.366;10.958;2022-09-09T04:24:36;15.10;99.90
19493;DHT22;9887;54.366;10.958;2022-09-09T04:27:04;15.20;99.90
19493;DHT22;9887;54.366;10.958;2022-09-09T04:29:34;14.90;99.90
19493;DHT22;9887;54.366;10.958;2022-09-09T04:32:02;15.10;99.90
19493;DHT22;9887;54.366;10.958;2022-09-09T04:34:31;15.00;99.90
19493;DHT22;9887;54.366;10.958;2022-09-09T04:37:00;15.00;99.90
19493;DHT22;9887;54.366;10.958;2022-09-09T04:39:29;15.10;99.90
19493;DHT22;9887;54.366;10.958;2022-09-09T04:41:59;14.90;99.90
19493;DHT22;9887;54.366;10.958;2022-09-09T04:44:26;14.70;99.90
19493;DHT22;9887;54.366;10.958;2022-09-09T04:46:54;14.80;99.90
19493;DHT22;9887;54.366;10.958;2022-09-09T04:49:22;14.70;99.90
19493;DHT22;9887;54.366;10.958;2022-09-09T04:51:50;14.70;99.90
19493;DHT22;9887;54.366;10.958;2022-09-09T04:54:18;14.70;99.90
19493;DHT22;9887;54.366;10.958;2022-09-09T04:56:49;14.60;99.90
19493;DHT22;9887;54.366;10.958;2022-09-09T04:59:18;14.70;99.90
19493;DHT22;9887;54.366;10.958;2022-09-09T05:01:50;14.80;99.90
19493;DHT22;9887;54.366;10.958;2022-09-09T05:04:20;14.80;99.90
19493;DHT22;9887;54.366;10.958;2022-09-09T05:06:47;14.60;99.90
19493;DHT22;9887;54.366;10.958;2022-09-09T05:09:15;14.70;99.90
19493;DHT22;9887;54.366;10.958;2022-09-09T05:11:45;14.80;99.90
19493;DHT22;9887;54.366;10.958;2022-09-09T05:14:28;14.80;99.90
19493;DHT22;9887;54.366;10.958;2022-09-09T05:16:59;14.70;99.90
19493;DHT22;9887;54.366;10.958;2022-09-09T05:19:27;14.80;99.90
19493;DHT22;9887;54.366;10.958;2022-09-09T05:21:55;14.70;99.90
19493;DHT22;9887;54.366;10.958;2022-09-09T05:24:30;14.80;99.90
19493;DHT22;9887;54.366;10.958;2022-09-09T05:27:00;14.80;99.90
19493;DHT22;9887;54.366;10.958;2022-09-09T05:29:30;14.90;99.90
19493;DHT22;9887;54.366;10.958;2022-09-09T05:32:01;14.90;99.90
19493;DHT22;9887;54.366;10.958;2022-09-09T05:34:29;14.70;99.90
19493;DHT22;9887;54.366;10.958;2022-09-09T05:36:57;14.70;99.90
19493;DHT22;9887;54.366;10.958;2022-09-09T05:39:26;14.60;99.90
19493;DHT22;9887;54.366;10.958;2022-09-09T05:41:54;14.60;99.90
19493;DHT22;9887;54.366;10.958;2022-09-09T05:44:22;14.70;99.90
19493;DHT22;9887;54.366;10.958;2022-09-09T05:46:55;14.60;99.90
19493;DHT22;9887;54.366;10.958;2022-09-09T05:49:24;14.80;99.90
19493;DHT22;9887;54.366;10.958;2022-09-09T05:51:52;14.80;99.90
19493;DHT22;9887;54.366;10.958;2022-09-09T05:54:22;14.60;99.90
19493;DHT22;9887;54.366;10.958;2022-09-09T05:56:51;14.80;99.90
19493;DHT22;9887;54.366;10.958;2022-09-09T05:59:20;14.70;99.90
19493;DHT22;9887;54.366;10.958;2022-09-09T06:01:51;15.00;99.90
19493;DHT22;9887;54.366;10.958;2022-09-09T06:04:33;15.00;99.90
19493;DHT22;9887;54.366;10.958;2022-09-09T06:07:01;14.80;99.90
19493;DHT22;9887;54.366;10.958;2022-09-09T06:09:29;15.10;99.90
19493;DHT22;9887;54.366;10.958;2022-09-09T06:11:57;14.90;99.90
19493;DHT22;9887;54.366;10.958;2022-09-09T06:14:26;15.00;99.90
19493;DHT22;9887;54.366;10.958;2022-09-09T06:16:57;14.90;99.90
19493;DHT22;9887;54.366;10.958;2022-09-09T06:19:28;15.00;99.90
19493;DHT22;9887;54.366;10.958;2022-09-09T06:21:59;14.90;99.90
19493;DHT22;9887;54.366;10.958;2022-09-09T06:24:29;15.10;99.90
19493;DHT22;9887;54.366;10.958;2022-09-09T06:27:00;15.30;99.90
19493;DHT22;9887;54.366;10.958;2022-09-09T06:29:32;15.10;99.90
19493;DHT22;9887;54.366;10.958;2022-09-09T06:32:01;15.00;99.90
19493;DHT22;9887;54.366;10.958;2022-09-09T06:34:30;15.20;99.90
19493;DHT22;9887;54.366;10.958;2022-09-09T06:37:00;15.10;99.90
19493;DHT22;9887;54.366;10.958;2022-09-09T06:39:35;15.10;99.90
19493;DHT22;9887;54.366;10.958;2022-09-09T06:42:03;15.30;99.90
19493;DHT22;9887;54.366;10.958;2022-09-09T06:44:49;15.10;99.90
19493;DHT22;9887;54.366;10.958;2022-09-09T06:47:27;15.20;99.90
19493;DHT22;9887;54.366;10.958;2022-09-09T06:49:57;15.20;99.90
19493;DHT22;9887;54.366;10.958;2022-09-09T06:52:26;15.40;99.90
19493;DHT22;9887;54.366;10.958;2022-09-09T06:54:55;15.50;99.90
19493;DHT22;9887;54.366;10.958;2022-09-09T06:57:25;15.40;99.90
19493;DHT22;9887;54.366;10.958;2022-09-09T07:00:05;15.30;99.90
19493;DHT22;9887;54.366;10.958;2022-09-09T07:05:07;15.40;99.90
19493;DHT22;9887;54.366;10.958;2022-09-09T07:07:37;15.60;99.90
19493;DHT22;9887;54.366;10.958;2022-09-09T07:10:06;15.40;99.90
19493;DHT22;9887;54.366;10.958;2022-09-09T07:12:36;15.40;99.90
19493;DHT22;9887;54.366;10.958;2022-09-09T07:15:05;15.50;99.90
19493;DHT22;9887;54.366;10.958;2022-09-09T07:17:33;15.40;99.90
19493;DHT22;9887;54.366;10.958;2022-09-09T07:20:02;15.50;99.90
19493;DHT22;9887;54.366;10.958;2022-09-09T07:22:31;15.40;99.90
19493;DHT22;9887;54.366;10.958;2022-09-09T07:25:01;15.20;99.90
19493;DHT22;9887;54.366;10.958;2022-09-09T07:27:29;15.10;99.90
19493;DHT22;9887;54.366;10.958;2022-09-09T07:29:57;15.30;99.90
19493;DHT22;9887;54.366;10.958;2022-09-09T07:32:25;15.40;99.90
19493;DHT22;9887;54.366;10.958;2022-09-09T07:34:53;15.40;99.90
19493;DHT22;9887;54.366;10.958;2022-09-09T07:37:21;15.40;99.90
19493;DHT22;9887;54.366;10.958;2022-09-09T07:39:51;15.70;99.90
19493;DHT22;9887;54.366;10.958;2022-09-09T07:42:21;15.40;99.90
19493;DHT22;9887;54.366;10.958;2022-09-09T07:44:49;15.70;99.90
19493;DHT22;9887;54.366;10.958;2022-09-09T07:47:21;15.50;99.90
19493;DHT22;9887;54.366;10.958;2022-09-09T07:49:51;15.60;99.90
19493;DHT22;9887;54.366;10.958;2022-09-09T07:52:25;15.50;99.90
19493;DHT22;9887;54.366;10.958;2022-09-09T07:54:58;15.70;99.90
19493;DHT22;9887;54.366;10.958;2022-09-09T07:57:29;15.60;99.90
19493;DHT22;9887;54.366;10.958;2022-09-09T07:59:57;15.60;99.90
19493;DHT22;9887;54.366;10.958;2022-09-09T08:02:25;16.00;99.90
19493;DHT22;9887;54.366;10.958;2022-09-09T08:04:55;15.90;99.90
19493;DHT22;9887;54.366;10.958;2022-09-09T08:07:24;15.90;99.90
19493;DHT22;9887;54.366;10.958;2022-09-09T08:09:54;15.90;99.90
19493;DHT22;9887;54.366;10.958;2022-09-09T08:12:26;16.00;99.90
19493;DHT22;9887;54.366;10.958;2022-09-09T08:14:56;16.00;99.90
19493;DHT22;9887;54.366;10.958;2022-09-09T08:17:28;15.80;99.90
19493;DHT22;9887;54.366;10.958;2022-09-09T08:19:58;16.00;99.90
19493;DHT22;9887;54.366;10.958;2022-09-09T08:22:30;16.30;99.90
19493;DHT22;9887;54.366;10.958;2022-09-09T08:24:58;16.30;99.90
19493;DHT22;9887;54.366;10.958;2022-09-09T08:27:27;16.40;99.90
19493;DHT22;9887;54.366;10.958;2022-09-09T08:29:56;16.50;99.90
19493;DHT22;9887;54.366;10.958;2022-09-09T08:32:24;16.20;99.90
19493;DHT22;9887;54.366;10.958;2022-09-09T08:34:53;16.20;99.90
19493;DHT22;9887;54.366;10.958;2022-09-09T08:37:27;16.40;99.90
19493;DHT22;9887;54.366;10.958;2022-09-09T08:39:55;16.70;99.90
19493;DHT22;9887;54.366;10.958;2022-09-09T08:42:37;16.70;99.90
19493;DHT22;9887;54.366;10.958;2022-09-09T08:45:19;16.80;99.90
19493;DHT22;9887;54.366;10.958;2022-09-09T08:47:58;17.00;99.90
19493;DHT22;9887;54.366;10.958;2022-09-09T08:50:30;16.90;99.90
19493;DHT22;9887;54.366;10.958;2022-09-09T08:53:10;16.90;99.90
19493;DHT22;9887;54.366;10.958;2022-09-09T08:55:43;16.80;99.90
19493;DHT22;9887;54.366;10.958;2022-09-09T08:58:15;17.10;99.90
19493;DHT22;9887;54.366;10.958;2022-09-09T09:01:02;16.80;99.90
19493;DHT22;9887;54.366;10.958;2022-09-09T09:03:41;16.70;99.90
19493;DHT22;9887;54.366;10.958;2022-09-09T09:06:21;16.70;99.90
19493;DHT22;9887;54.366;10.958;2022-09-09T09:08:59;16.60;99.90
19493;DHT22;9887;54.366;10.958;2022-09-09T09:11:35;16.60;99.90
19493;DHT22;9887;54.366;10.958;2022-09-09T09:14:09;16.70;99.90
19493;DHT22;9887;54.366;10.958;2022-09-09T09:16:47;16.80;99.90
19493;DHT22;9887;54.366;10.958;2022-09-09T09:19:16;16.80;99.90
19493;DHT22;9887;54.366;10.958;2022-09-09T09:21:50;16.90;99.90
19493;DHT22;9887;54.366;10.958;2022-09-09T09:24:23;16.90;99.90
19493;DHT22;9887;54.366;10.958;2022-09-09T09:26:54;17.00;99.90
19493;DHT22;9887;54.366;10.958;2022-09-09T09:29:25;17.10;99.90
19493;DHT22;9887;54.366;10.958;2022-09-09T09:31:56;17.40;99.90
19493;DHT22;9887;54.366;10.958;2022-09-09T09:34:27;17.20;99.90
19493;DHT22;9887;54.366;10.958;2022-09-09T09:36:57;17.20;99.90
19493;DHT22;9887;54.366;10.958;2022-09-09T09:39:32;17.10;99.90
19493;DHT22;9887;54.366;10.958;2022-09-09T09:42:23;17.30;99.90
19493;DHT22;9887;54.366;10.958;2022-09-09T09:44:54;17.10;99.90
19493;DHT22;9887;54.366;10.958;2022-09-09T09:47:23;17.10;99.90
19493;DHT22;9887;54.366;10.958;2022-09-09T09:50:00;16.90;99.90
19493;DHT22;9887;54.366;10.958;2022-09-09T09:55:13;17.30;99.90
19493;DHT22;9887;54.366;10.958;2022-09-09T09:57:44;17.40;99.90
19493;DHT22;9887;54.366;10.958;2022-09-09T10:00:14;17.50;99.90
19493;DHT22;9887;54.366;10.958;2022-09-09T10:02:49;17.70;99.90
19493;DHT22;9887;54.366;10.958;2022-09-09T10:05:24;17.90;99.90
19493;DHT22;9887;54.366;10.958;2022-09-09T10:08:03;18.10;99.90
19493;DHT22;9887;54.366;10.958;2022-09-09T10:10:47;18.20;99.90
19493;DHT22;9887;54.366;10.958;2022-09-09T10:13:20;18.30;99.90
19493;DHT22;9887;54.366;10.958;2022-09-09T10:16:00;18.30;99.90
19493;DHT22;9887;54.366;10.958;2022-09-09T10:18:42;18.30;99.90
19493;DHT22;9887;54.366;10.958;2022-09-09T10:24:16;18.30;99.90
19493;DHT22;9887;54.366;10.958;2022-09-09T10:26:53;18.30;99.90
19493;DHT22;9887;54.366;10.958;2022-09-09T10:29:54;18.60;99.90
19493;DHT22;9887;54.366;10.958;2022-09-09T10:32:36;18.70;99.90
19493;DHT22;9887;54.366;10.958;2022-09-09T10:35:11;18.60;99.90
19493;DHT22;9887;54.366;10.958;2022-09-09T10:38:11;18.40;99.90
19493;DHT22;9887;54.366;10.958;2022-09-09T10:40:45;18.50;99.90
19493;DHT22;9887;54.366;10.958;2022-09-09T10:43:30;18.20;99.90
19493;DHT22;9887;54.366;10.958;2022-09-09T10:46:07;18.30;99.90
19493;DHT22;9887;54.366;10.958;2022-09-09T10:48:47;18.50;99.90
19493;DHT22;9887;54.366;10.958;2022-09-09T10:51:30;18.40;99.90
19493;DHT22;9887;54.366;10.958;2022-09-09T10:54:20;18.60;99.90
19493;DHT22;9887;54.366;10.958;2022-09-09T10:56:52;18.40;99.90
19493;DHT22;9887;54.366;10.958;2022-09-09T10:59:25;18.30;99.90
19493;DHT22;9887;54.366;10.958;2022-09-09T11:01:58;18.10;99.90
19493;DHT22;9887;54.366;10.958;2022-09-09T11:04:30;18.30;99.90
19493;DHT22;9887;54.366;10.958;2022-09-09T11:07:06;18.50;99.90
19493;DHT22;9887;54.366;10.958;2022-09-09T11:09:42;18.20;99.90
19493;DHT22;9887;54.366;10.958;2022-09-09T11:12:17;18.40;99.90
19493;DHT22;9887;54.366;10.958;2022-09-09T11:14:49;18.60;99.90
19493;DHT22;9887;54.366;10.958;2022-09-09T11:17:22;18.60;99.90
19493;DHT22;9887;54.366;10.958;2022-09-09T11:19:51;18.70;99.90
19493;DHT22;9887;54.366;10.958;2022-09-09T11:22:26;18.90;99.90
19493;DHT22;9887;54.366;10.958;2022-09-09T11:25:00;19.00;99.90
19493;DHT22;9887;54.366;10.958;2022-09-09T11:27:36;18.90;99.90
19493;DHT22;9887;54.366;10.958;2022-09-09T11:30:16;18.80;99.90
19493;DHT22;9887;54.366;10.958;2022-09-09T11:36:19;19.00;99.90
19493;DHT22;9887;54.366;10.958;2022-09-09T11:38:56;19.00;99.90
19493;DHT22;9887;54.366;10.958;2022-09-09T11:41:34;19.10;99.90
19493;DHT22;9887;54.366;10.958;2022-09-09T11:44:10;19.10;99.90
19493;DHT22;9887;54.366;10.958;2022-09-09T11:46:40;19.10;99.90
19493;DHT22;9887;54.366;10.958;2022-09-09T11:49:26;19.10;99.90
19493;DHT22;9887;54.366;10.958;2022-09-09T11:51:54;19.30;99.90
19493;DHT22;9887;54.366;10.958;2022-09-09T11:54:30;19.30;99.90
19493;DHT22;9887;54.366;10.958;2022-09-09T11:56:59;19.40;99.90
19493;DHT22;9887;54.366;10.958;2022-09-09T11:59:28;19.30;99.90
19493;DHT22;9887;54.366;10.958;2022-09-09T12:01:57;19.40;99.90
19493;DHT22;9887;54.366;10.958;2022-09-09T12:04:37;19.50;99.90
19493;DHT22;9887;54.366;10.958;2022-09-09T12:07:27;19.40;99.90
19493;DHT22;9887;54.366;10.958;2022-09-09T12:10:02;19.30;99.90
19493;DHT22;9887;54.366;10.958;2022-09-09T12:12:32;19.10;99.90
19493;DHT22;9887;54.366;10.958;2022-09-09T12:15:19;19.20;99.90
19493;DHT22;9887;54.366;10.958;2022-09-09T12:17:48;19.10;99.90
19493;DHT22;9887;54.366;10.958;2022-09-09T12:20:20;18.90;99.90
19493;DHT22;9887;54.366;10.958;2022-09-09T12:23:02;18.90;99.90
19493;DHT22;9887;54.366;10.958;2022-09-09T12:25:46;19.20;99.90
19493;DHT22;9887;54.366;10.958;2022-09-09T12:28:18;19.20;99.90
19493;DHT22;9887;54.366;10.958;2022-09-09T12:30:53;19.10;99.90
19493;DHT22;9887;54.366;10.958;2022-09-09T12:33:23;19.20;99.90
19493;DHT22;9887;54.366;10.958;2022-09-09T12:35:55;19.30;99.90
19493;DHT22;9887;54.366;10.958;2022-09-09T12:38:31;19.30;99.90
19493;DHT22;9887;54.366;10.958;2022-09-09T12:41:01;19.10;99.90
19493;DHT22;9887;54.366;10.958;2022-09-09T12:43:29;19.10;99.90
19493;DHT22;9887;54.366;10.958;2022-09-09T12:46:00;19.20;99.90
19493;DHT22;9887;54.366;10.958;2022-09-09T12:48:33;19.30;99.90
19493;DHT22;9887;54.366;10.958;2022-09-09T12:51:16;19.10;99.90
19493;DHT22;9887;54.366;10.958;2022-09-09T12:53:45;19.30;99.90
19493;DHT22;9887;54.366;10.958;2022-09-09T12:56:20;19.40;99.90
19493;DHT22;9887;54.366;10.958;2022-09-09T12:58:51;19.50;99.90
19493;DHT22;9887;54.366;10.958;2022-09-09T13:01:22;19.50;99.90
19493;DHT22;9887;54.366;10.958;2022-09-09T13:03:50;19.40;99.90
19493;DHT22;9887;54.366;10.958;2022-09-09T13:06:21;19.50;99.90
19493;DHT22;9887;54.366;10.958;2022-09-09T13:08:56;19.50;99.90
19493;DHT22;9887;54.366;10.958;2022-09-09T13:11:29;19.80;99.90
19493;DHT22;9887;54.366;10.958;2022-09-09T13:13:59;19.90;99.90
19493;DHT22;9887;54.366;10.958;2022-09-09T13:16:28;19.90;99.90
19493;DHT22;9887;54.366;10.958;2022-09-09T13:18:59;19.90;99.90
19493;DHT22;9887;54.366;10.958;2022-09-09T13:21:35;19.90;99.90
19493;DHT22;9887;54.366;10.958;2022-09-09T13:24:05;20.10;99.90
19493;DHT22;9887;54.366;10.958;2022-09-09T13:26:35;20.10;99.90
19493;DHT22;9887;54.366;10.958;2022-09-09T13:29:14;20.20;99.90
19493;DHT22;9887;54.366;10.958;2022-09-09T13:31:45;20.10;99.90
19493;DHT22;9887;54.366;10.958;2022-09-09T13:34:14;20.20;99.90
19493;DHT22;9887;54.366;10.958;2022-09-09T13:36:58;20.00;99.90
19493;DHT22;9887;54.366;10.958;2022-09-09T13:39:28;20.10;99.90
19493;DHT22;9887;54.366;10.958;2022-09-09T13:41:58;20.20;99.90
19493;DHT22;9887;54.366;10.958;2022-09-09T13:44:28;20.30;99.90
19493;DHT22;9887;54.366;10.958;2022-09-09T13:47:01;20.10;99.90
19493;DHT22;9887;54.366;10.958;2022-09-09T13:49:35;20.40;99.90
19493;DHT22;9887;54.366;10.958;2022-09-09T13:54:34;20.40;99.90
19493;DHT22;9887;54.366;10.958;2022-09-09T13:57:03;20.50;99.90
19493;DHT22;9887;54.366;10.958;2022-09-09T13:59:32;20.50;99.90
19493;DHT22;9887;54.366;10.958;2022-09-09T14:02:19;20.50;99.90
19493;DHT22;9887;54.366;10.958;2022-09-09T14:04:48;20.50;99.90
19493;DHT22;9887;54.366;10.958;2022-09-09T14:07:18;20.60;99.90
19493;DHT22;9887;54.366;10.958;2022-09-09T14:09:46;20.60;99.90
19493;DHT22;9887;54.366;10.958;2022-09-09T14:12:17;20.50;99.90
19493;DHT22;9887;54.366;10.958;2022-09-09T14:14:46;20.50;99.90
19493;DHT22;9887;54.366;10.958;2022-09-09T14:17:14;20.60;99.90
19493;DHT22;9887;54.366;10.958;2022-09-09T14:19:41;20.70;99.90
19493;DHT22;9887;54.366;10.958;2022-09-09T14:22:12;20.80;99.90
19493;DHT22;9887;54.366;10.958;2022-09-09T14:24:40;20.80;99.90
19493;DHT22;9887;54.366;10.958;2022-09-09T14:27:08;20.80;99.90
19493;DHT22;9887;54.366;10.958;2022-09-09T14:29:37;20.90;99.90
19493;DHT22;9887;54.366;10.958;2022-09-09T14:32:05;20.90;99.90
19493;DHT22;9887;54.366;10.958;2022-09-09T14:34:38;20.90;99.90
19493;DHT22;9887;54.366;10.958;2022-09-09T14:37:07;20.80;99.90
19493;DHT22;9887;54.366;10.958;2022-09-09T14:39:35;20.80;99.90
19493;DHT22;9887;54.366;10.958;2022-09-09T14:42:03;20.80;99.90
19493;DHT22;9887;54.366;10.958;2022-09-09T14:44:31;20.90;99.90
19493;DHT22;9887;54.366;10.958;2022-09-09T14:47:01;20.90;99.90
19493;DHT22;9887;54.366;10.958;2022-09-09T14:49:29;20.80;99.90
19493;DHT22;9887;54.366;10.958;2022-09-09T14:51:57;20.80;99.90
19493;DHT22;9887;54.366;10.958;2022-09-09T14:54:25;20.80;99.90
19493;DHT22;9887;54.366;10.958;2022-09-09T14:56:53;20.80;99.90
19493;DHT22;9887;54.366;10.958;2022-09-09T14:59:21;20.80;99.90
19493;DHT22;9887;54.366;10.958;2022-09-09T15:01:49;20.70;99.90
19493;DHT22;9887;54.366;10.958;2022-09-09T15:04:18;20.60;99.90
19493;DHT22;9887;54.366;10.958;2022-09-09T15:06:46;20.60;99.90
19493;DHT22;9887;54.366;10.958;2022-09-09T15:09:16;20.60;99.90
19493;DHT22;9887;54.366;10.958;2022-09-09T15:11:44;20.50;99.90
19493;DHT22;9887;54.366;10.958;2022-09-09T15:14:12;20.40;99.90
19493;DHT22;9887;54.366;10.958;2022-09-09T15:16:40;20.30;99.90
19493;DHT22;9887;54.366;10.958;2022-09-09T15:19:08;20.40;99.90
19493;DHT22;9887;54.366;10.958;2022-09-09T15:21:37;20.40;99.90
19493;DHT22;9887;54.366;10.958;2022-09-09T15:24:06;20.40;99.90
19493;DHT22;9887;54.366;10.958;2022-09-09T15:26:35;20.50;99.90
19493;DHT22;9887;54.366;10.958;2022-09-09T15:29:05;20.50;99.90
19493;DHT22;9887;54.366;10.958;2022-09-09T15:31:34;20.50;99.90
19493;DHT22;9887;54.366;10.958;2022-09-09T15:34:03;20.50;99.90
19493;DHT22;9887;54.366;10.958;2022-09-09T15:36:33;20.40;99.90
19493;DHT22;9887;54.366;10.958;2022-09-09T15:39:04;20.40;99.90
19493;DHT22;9887;54.366;10.958;2022-09-09T15:41:32;20.40;99.90
19493;DHT22;9887;54.366;10.958;2022-09-09T15:44:01;20.40;99.90
19493;DHT22;9887;54.366;10.958;2022-09-09T15:46:31;20.20;99.90
19493;DHT22;9887;54.366;10.958;2022-09-09T15:49:10;20.20;99.90
19493;DHT22;9887;54.366;10.958;2022-09-09T15:51:39;20.10;99.90
19493;DHT22;9887;54.366;10.958;2022-09-09T15:54:13;20.00;99.90
19493;DHT22;9887;54.366;10.958;2022-09-09T15:56:43;19.90;99.90
19493;DHT22;9887;54.366;10.958;2022-09-09T15:59:11;19.80;99.90
19493;DHT22;9887;54.366;10.958;2022-09-09T16:01:41;19.80;99.90
19493;DHT22;9887;54.366;10.958;2022-09-09T16:04:10;19.70;99.90
19493;DHT22;9887;54.366;10.958;2022-09-09T16:06:38;19.50;99.90
19493;DHT22;9887;54.366;10.958;2022-09-09T16:09:07;19.50;99.90
19493;DHT22;9887;54.366;10.958;2022-09-09T16:11:38;19.40;99.90
19493;DHT22;9887;54.366;10.958;2022-09-09T16:14:07;19.40;99.90
19493;DHT22;9887;54.366;10.958;2022-09-09T16:16:35;19.40;99.90